Time;durP1;ratioP1;P1;durP2;ratioP2;P2;SDS_P1;SDS_P2;PMS_P1;PMS_P2;Temp;Humidity;BMP_temperature;BMP_pressure;BME280_temperature;BME280_humidity;BME280_pressure;Samples;Min_cycle;Max_cycle;Signal;HPM_P1;HPM_P2
2021/11/02 00:01:15;;;;;;;1.70;0.80;;;8.40;92.90;;;;;;5032246;28;20200;-66
2021/11/02 00:03:47;;;;;;;2.05;1.02;;;8.40;93.40;;;;;;5031922;28;20601;-67
2021/11/02 00:06:14;;;;;;;4.20;0.90;;;8.30;93.30;;;;;;5036978;28;20233;-66
2021/11/02 00:08:48;;;;;;;1.67;0.75;;;8.30;93.40;;;;;;5052883;28;20225;-67
2021/11/02 00:11:15;;;;;;;1.80;1.00;;;8.30;93.50;;;;;;5050398;28;20642;-67
2021/11/02 00:13:48;;;;;;;2.92;0.80;;;8.30;93.60;;;;;;5035668;28;20218;-67
2021/11/02 00:16:21;;;;;;;2.83;1.00;;;8.30;93.70;;;;;;5039202;28;20272;-67
2021/11/02 00:19:00;;;;;;;5.35;1.80;;;8.40;93.60;;;;;;5054670;28;20270;-66
2021/11/02 00:21:29;;;;;;;1.73;0.95;;;8.40;93.50;;;;;;5049867;28;20199;-66
2021/11/02 00:24:08;;;;;;;2.97;1.10;;;8.40;93.30;;;;;;5035613;28;20200;-66
2021/11/02 00:26:39;;;;;;;1.67;0.70;;;8.40;93.10;;;;;;5040819;28;20186;-67
2021/11/02 00:29:06;;;;;;;2.33;1.00;;;8.40;93.10;;;;;;5055330;28;20214;-67
2021/11/02 00:31:34;;;;;;;2.22;0.95;;;8.50;93.10;;;;;;5050070;28;20216;-66
2021/11/02 00:34:01;;;;;;;2.83;0.85;;;8.50;93.00;;;;;;5037800;28;20581;-67
2021/11/02 00:36:28;;;;;;;4.10;0.90;;;8.50;92.90;;;;;;5055426;28;20230;-66
2021/11/02 00:38:56;;;;;;;2.17;0.95;;;8.50;92.80;;;;;;5053331;28;20198;-66
2021/11/02 00:41:24;;;;;;;2.25;0.70;;;8.50;92.60;;;;;;5035432;28;20195;-67
2021/11/02 00:43:54;;;;;;;2.30;1.00;;;8.50;92.60;;;;;;5034790;28;20199;-67
2021/11/02 00:46:30;;;;;;;2.65;0.80;;;8.50;92.60;;;;;;5055343;28;20190;-66
2021/11/02 00:48:58;;;;;;;1.50;0.70;;;8.50;92.60;;;;;;5053643;28;20559;-66
2021/11/02 00:51:26;;;;;;;2.78;0.80;;;8.50;92.40;;;;;;5034952;28;20198;-66
2021/11/02 00:54:05;;;;;;;1.90;1.10;;;8.50;92.40;;;;;;5035119;28;20207;-66
2021/11/02 00:56:34;;;;;;;1.80;0.75;;;8.60;92.30;;;;;;5035436;28;20191;-67
2021/11/02 00:59:01;;;;;;;2.67;0.73;;;8.50;91.90;;;;;;5034779;28;20188;-66
2021/11/02 01:01:29;;;;;;;2.50;1.20;;;8.50;91.90;;;;;;5034726;28;20191;-66
2021/11/02 01:03:57;;;;;;;1.85;0.73;;;8.50;91.90;;;;;;5034436;28;20226;-66
2021/11/02 01:06:25;;;;;;;2.00;0.90;;;8.50;92.00;;;;;;5034543;28;20192;-65
2021/11/02 01:08:54;;;;;;;1.50;0.60;;;8.50;92.10;;;;;;5034589;28;20207;-66
2021/11/02 01:11:22;;;;;;;2.08;0.80;;;8.50;92.20;;;;;;5034677;28;20651;-66
2021/11/02 01:13:51;;;;;;;2.35;0.75;;;8.50;92.10;;;;;;5049910;28;20218;-67
2021/11/02 01:16:23;;;;;;;1.90;0.80;;;8.50;92.10;;;;;;5054453;28;20298;-66
2021/11/02 01:18:50;;;;;;;1.40;0.70;;;8.60;91.60;;;;;;5037984;28;20208;-66
2021/11/02 01:21:23;;;;;;;2.03;0.70;;;8.50;91.40;;;;;;5034273;28;20606;-66
2021/11/02 01:23:50;;;;;;;2.13;0.90;;;8.40;91.40;;;;;;5048581;28;20198;-66
2021/11/02 01:26:23;;;;;;;1.67;0.80;;;8.30;91.50;;;;;;5054383;28;20194;-66
2021/11/02 01:28:52;;;;;;;1.60;0.73;;;8.20;91.80;;;;;;5039825;28;20215;-66
2021/11/02 01:31:19;;;;;;;1.80;0.73;;;8.20;91.90;;;;;;5034322;28;20717;-66
2021/11/02 01:33:46;;;;;;;2.33;0.85;;;8.30;92.10;;;;;;5046862;28;20273;-66
2021/11/02 01:36:15;;;;;;;3.33;0.80;;;8.30;92.30;;;;;;5051660;28;20273;-66
2021/11/02 01:38:45;;;;;;;1.92;0.80;;;8.30;92.00;;;;;;5053935;28;20230;-66
2021/11/02 01:41:15;;;;;;;2.15;0.70;;;8.30;92.00;;;;;;5051891;28;20183;-66
2021/11/02 01:43:46;;;;;;;2.00;0.75;;;8.30;91.90;;;;;;5042467;28;20545;-66
2021/11/02 01:46:24;;;;;;;1.90;1.00;;;8.30;92.00;;;;;;5053980;28;20190;-66
2021/11/02 01:48:55;;;;;;;2.20;1.40;;;8.30;91.90;;;;;;5053263;28;20183;-66
2021/11/02 01:51:23;;;;;;;2.00;0.82;;;8.30;91.80;;;;;;5054033;28;20614;-66
2021/11/02 01:53:50;;;;;;;2.42;0.80;;;8.40;91.80;;;;;;5051579;28;20633;-66
2021/11/02 01:56:18;;;;;;;2.42;0.75;;;8.40;91.70;;;;;;5048033;28;20219;-66
2021/11/02 01:58:48;;;;;;;2.20;1.00;;;8.40;91.70;;;;;;5034916;28;20278;-69
2021/11/02 02:01:26;;;;;;;1.90;1.08;;;8.40;91.60;;;;;;5053692;28;20191;-66
2021/11/02 02:04:02;;;;;;;4.30;0.93;;;8.40;91.60;;;;;;5051367;28;20693;-66
2021/11/02 02:06:43;;;;;;;3.33;1.00;;;8.40;91.70;;;;;;5039863;28;20252;-67
2021/11/02 02:09:18;;;;;;;3.28;1.00;;;8.40;91.50;;;;;;5049239;28;20211;-67
2021/11/02 02:11:55;;;;;;;1.80;0.90;;;8.30;91.40;;;;;;5033743;28;20277;-66
2021/11/02 02:14:32;;;;;;;4.30;1.35;;;8.40;91.50;;;;;;5047757;28;20186;-66
2021/11/02 02:17:23;;;;;;;2.50;1.10;;;8.40;91.40;;;;;;5053250;28;20282;-66
2021/11/02 02:19:55;;;;;;;2.30;0.93;;;8.40;91.20;;;;;;5034102;28;20609;-66
2021/11/02 02:22:40;;;;;;;1.88;0.80;;;8.40;91.20;;;;;;5033360;28;20655;-66
2021/11/02 02:25:35;;;;;;;1.88;0.95;;;8.40;91.00;;;;;;5033549;28;20183;-66
2021/11/02 02:28:16;;;;;;;2.75;0.80;;;8.40;90.90;;;;;;5032974;28;20180;-66
2021/11/02 02:30:47;;;;;;;4.15;0.90;;;8.40;90.60;;;;;;5032502;28;20227;-68
2021/11/02 02:33:22;;;;;;;2.03;0.90;;;8.40;90.60;;;;;;5035739;28;20179;-66
2021/11/02 02:35:52;;;;;;;3.60;0.90;;;8.40;90.60;;;;;;5052742;28;20663;-67
2021/11/02 02:38:21;;;;;;;1.70;0.80;;;8.30;90.60;;;;;;5048119;28;20238;-66
2021/11/02 02:40:51;;;;;;;1.50;0.60;;;8.30;90.70;;;;;;5048875;28;20252;-66
2021/11/02 02:43:21;;;;;;;2.05;0.70;;;8.20;90.70;;;;;;5048875;28;20195;-66
2021/11/02 02:45:50;;;;;;;4.35;0.90;;;8.20;90.60;;;;;;5032537;28;20191;-66
2021/11/02 02:48:22;;;;;;;2.63;1.10;;;8.20;90.60;;;;;;5035147;28;20605;-66
2021/11/02 02:50:52;;;;;;;3.47;1.05;;;8.20;90.60;;;;;;5050519;28;20198;-66
2021/11/02 02:53:21;;;;;;;1.73;0.80;;;8.20;90.70;;;;;;5032785;28;20488;-66
2021/11/02 02:55:52;;;;;;;4.72;1.10;;;8.20;90.70;;;;;;5042524;28;20191;-66
2021/11/02 02:58:23;;;;;;;1.60;0.70;;;8.20;90.80;;;;;;5052618;28;20202;-66
2021/11/02 03:00:50;;;;;;;2.03;0.70;;;8.20;90.90;;;;;;5040981;28;20215;-66
2021/11/02 03:03:19;;;;;;;3.00;0.88;;;8.20;91.00;;;;;;5037881;28;20261;-66
2021/11/02 03:05:46;;;;;;;1.90;0.75;;;8.20;91.00;;;;;;5052403;28;20194;-66
2021/11/02 03:08:13;;;;;;;2.90;0.80;;;8.20;91.00;;;;;;5047230;28;20584;-66
2021/11/02 03:10:44;;;;;;;2.22;0.68;;;8.20;91.00;;;;;;5032173;28;20219;-67
2021/11/02 03:13:14;;;;;;;2.20;0.85;;;8.20;90.70;;;;;;5035689;28;20717;-66
2021/11/02 03:15:55;;;;;;;1.55;0.70;;;8.10;90.80;;;;;;5044955;28;20647;-66
2021/11/02 03:18:55;;;;;;;2.58;0.90;;;8.20;91.00;;;;;;5048519;28;20265;-65
2021/11/02 03:49:57;;;;;;;1.50;0.60;;;8.20;90.50;;;;;;5036272;28;20273;-67
2021/11/02 03:55:28;;;;;;;1.95;0.70;;;8.10;90.50;;;;;;5013738;28;20195;-66
2021/11/02 03:57:59;;;;;;;1.60;0.77;;;8.10;90.40;;;;;;5013335;28;20226;-66
2021/11/02 05:08:41;;;;;;;2.53;1.23;;;7.80;91.60;;;;;;5089045;28;20193;-66
2021/11/02 05:48:06;;;;;;;2.72;1.02;;;8.10;92.70;;;;;;5086439;28;20196;-67
2021/11/02 05:51:05;;;;;;;2.05;0.70;;;8.10;92.80;;;;;;5086450;28;20193;-66
2021/11/02 05:53:58;;;;;;;1.80;1.00;;;8.10;92.90;;;;;;5085563;28;20201;-66
2021/11/02 05:56:35;;;;;;;2.03;0.85;;;8.20;92.60;;;;;;5074478;28;20198;-66
2021/11/02 05:59:17;;;;;;;2.72;0.80;;;8.20;92.60;;;;;;5069919;28;20201;-66
2021/11/02 06:01:58;;;;;;;2.88;0.95;;;8.20;92.50;;;;;;5071964;28;20186;-66
2021/11/02 06:07:30;;;;;;;3.35;0.90;;;8.30;92.80;;;;;;5072357;28;20209;-67
2021/11/02 06:10:14;;;;;;;2.90;0.82;;;8.40;92.80;;;;;;5068611;28;20251;-66
2021/11/02 06:29:48;;;;;;;2.45;1.50;;;8.50;92.00;;;;;;5011071;28;20558;-66
2021/11/02 06:32:21;;;;;;;3.90;1.98;;;8.50;91.90;;;;;;5007890;28;20223;-68
2021/11/02 06:35:03;;;;;;;3.60;2.20;;;8.40;92.10;;;;;;5040686;28;20205;-67
2021/11/02 06:41:47;;;;;;;2.35;0.98;;;8.40;92.40;;;;;;5073301;28;20675;-67
2021/11/02 06:43:41;;;;;;;2.03;0.90;;;8.30;92.50;;;;;;5071607;28;20194;-67
2021/11/02 06:54:59;;;;;;;1.90;0.90;;;8.40;92.20;;;;;;5069230;28;20197;-67
2021/11/02 07:17:29;;;;;;;5.18;2.80;;;8.60;92.10;;;;;;5074234;28;20215;-67
2021/11/02 07:20:03;;;;;;;5.40;4.55;;;8.70;91.50;;;;;;5073938;28;20201;-67
2021/11/02 07:22:47;;;;;;;2.65;2.03;;;8.80;91.50;;;;;;5073841;28;20297;-67
2021/11/02 07:28:13;;;;;;;5.28;4.78;;;9.00;91.70;;;;;;5071128;28;20197;-67
2021/11/02 08:46:04;;;;;;;2.47;1.13;;;25.30;34.10;;;;;;5072637;28;20638;-67
2021/11/02 08:48:31;;;;;;;1.60;0.67;;;26.20;33.60;;;;;;5072011;28;20500;-67
2021/11/02 08:51:00;;;;;;;2.10;0.93;;;27.10;31.50;;;;;;5072797;28;20491;-68
2021/11/02 08:53:28;;;;;;;4.47;1.10;;;28.00;29.00;;;;;;5072620;28;20448;-68
2021/11/02 08:55:57;;;;;;;1.97;0.70;;;28.80;28.90;;;;;;5072756;28;20460;-67
2021/11/02 08:58:26;;;;;;;2.37;0.80;;;29.60;25.80;;;;;;5072548;28;20479;-67
2021/11/02 09:00:55;;;;;;;1.73;0.70;;;30.40;26.60;;;;;;5072823;28;20499;-68
2021/11/02 09:03:24;;;;;;;2.30;0.87;;;31.30;24.20;;;;;;5072535;28;20858;-68
2021/11/02 09:05:54;;;;;;;3.30;1.63;;;32.00;24.40;;;;;;5072070;28;20574;-68
2021/11/02 09:08:22;;;;;;;2.23;0.80;;;32.70;23.90;;;;;;5072491;28;20521;-68
2021/11/02 09:10:50;;;;;;;4.87;0.83;;;33.40;22.80;;;;;;5072421;28;20531;-67
2021/11/02 09:13:23;;;;;;;2.60;0.70;;;34.10;22.10;;;;;;5072223;28;20464;-68
2021/11/02 09:15:54;;;;;;;6.40;0.80;;;34.70;21.20;;;;;;5072116;28;20459;-67
2021/11/02 09:18:22;;;;;;;1.53;0.50;;;35.30;20.50;;;;;;5072450;28;20472;-68
2021/11/02 09:20:49;;;;;;;2.00;0.80;;;35.70;19.40;;;;;;5072113;28;20536;-68
2021/11/02 09:23:16;;;;;;;1.60;0.70;;;36.30;18.90;;;;;;5072310;28;20461;-68
2021/11/02 09:25:43;;;;;;;2.17;0.67;;;36.70;18.00;;;;;;5072318;28;20486;-69
2021/11/02 09:28:10;;;;;;;1.53;0.57;;;37.00;16.60;;;;;;5072277;28;20941;-68
2021/11/02 09:30:38;;;;;;;2.20;0.63;;;36.70;16.20;;;;;;5073011;28;20531;-69
2021/11/02 09:33:05;;;;;;;1.47;0.60;;;36.70;16.30;;;;;;5075883;28;20432;-69
2021/11/02 09:35:33;;;;;;;2.50;0.70;;;36.80;16.80;;;;;;5075939;28;20785;-68
2021/11/02 09:38:09;;;;;;;2.50;1.30;;;37.20;16.30;;;;;;5076165;28;20475;-68
2021/11/02 09:41:20;;;;;;;3.33;1.80;;;37.50;15.90;;;;;;5075478;28;20910;-68
2021/11/02 09:44:47;;;;;;;1.90;0.83;;;38.40;15.70;;;;;;5019477;28;20467;-68
2021/11/02 09:47:56;;;;;;;1.80;0.70;;;39.00;14.70;;;;;;5060254;28;20432;-68
2021/11/02 09:50:54;;;;;;;2.20;1.10;;;39.70;14.80;;;;;;5068559;28;20480;-68
2021/11/02 09:54:17;;;;;;;1.60;0.63;;;40.00;13.60;;;;;;5075298;28;20534;-68
2021/11/02 09:57:13;;;;;;;2.50;0.70;;;39.70;13.30;;;;;;5016592;28;20461;-68
2021/11/02 10:00:06;;;;;;;2.20;0.70;;;38.80;13.40;;;;;;5032860;28;20453;-68
2021/11/02 10:03:09;;;;;;;1.93;0.80;;;38.90;13.90;;;;;;5074735;28;20448;-68
2021/11/02 10:06:09;;;;;;;3.40;0.73;;;39.60;13.00;;;;;;5071845;28;20549;-69
2021/11/02 10:08:46;;;;;;;2.77;0.70;;;40.20;12.80;;;;;;5073870;28;20471;-69
2021/11/02 10:11:35;;;;;;;1.70;0.80;;;41.30;13.50;;;;;;5074094;28;20472;-68
2021/11/02 10:14:27;;;;;;;1.87;0.83;;;41.00;12.70;;;;;;5074914;28;20493;-68
2021/11/02 10:17:13;;;;;;;3.33;1.40;;;40.90;11.40;;;;;;5074796;28;20441;-68
2021/11/02 10:20:05;;;;;;;1.90;0.70;;;38.40;13.00;;;;;;5073966;28;20448;-68
2021/11/02 10:22:57;;;;;;;1.90;0.70;;;36.40;14.10;;;;;;5074735;28;20531;-67
2021/11/02 10:25:57;;;;;;;2.00;0.90;;;34.90;15.40;;;;;;5073729;28;20980;-68
2021/11/02 10:28:54;;;;;;;2.00;0.80;;;33.00;16.90;;;;;;5064561;28;20436;-67
2021/11/02 10:31:34;;;;;;;3.60;0.80;;;31.20;16.90;;;;;;5074240;28;20460;-67
2021/11/02 10:34:09;;;;;;;2.03;0.73;;;29.80;18.40;;;;;;5074893;28;20432;-67
2021/11/02 10:36:51;;;;;;;2.47;0.70;;;28.20;20.00;;;;;;5074752;28;20519;-67
2021/11/02 10:39:26;;;;;;;2.83;0.70;;;26.70;22.30;;;;;;5074801;28;20476;-66
2021/11/02 10:42:09;;;;;;;8.40;1.20;;;25.40;23.50;;;;;;5074294;28;20447;-67
2021/11/02 10:44:45;;;;;;;1.70;0.60;;;24.30;24.00;;;;;;5074050;28;20476;-66
2021/11/02 10:47:19;;;;;;;1.80;0.60;;;23.50;25.60;;;;;;5075082;28;20819;-67
2021/11/02 10:50:06;;;;;;;1.87;0.50;;;23.00;26.00;;;;;;5074479;28;20471;-66
2021/11/02 10:52:37;;;;;;;2.43;0.80;;;22.30;26.40;;;;;;5075009;28;20740;-67
2021/11/02 10:55:39;;;;;;;2.30;0.70;;;21.70;27.10;;;;;;5074494;28;20480;-68
2021/11/02 10:58:33;;;;;;;1.83;0.70;;;21.00;27.90;;;;;;5074736;28;20428;-67
2021/11/02 11:01:03;;;;;;;3.47;0.90;;;20.30;28.60;;;;;;5074270;28;20859;-66
2021/11/02 11:03:32;;;;;;;2.30;1.07;;;19.60;28.60;;;;;;5074062;28;20536;-66
2021/11/02 11:06:00;;;;;;;2.33;0.60;;;19.10;29.30;;;;;;5074105;28;20519;-66
2021/11/02 11:08:32;;;;;;;2.73;0.70;;;18.60;31.20;;;;;;5074009;28;20475;-66
2021/11/02 11:11:02;;;;;;;2.00;0.60;;;18.10;31.50;;;;;;5074086;28;20433;-66
2021/11/02 11:13:31;;;;;;;3.20;0.70;;;17.60;32.90;;;;;;5071606;28;20437;-65
2021/11/02 11:16:10;;;;;;;1.90;0.90;;;17.20;34.10;;;;;;5072442;28;20499;-66
2021/11/02 11:18:47;;;;;;;1.80;0.70;;;16.90;35.80;;;;;;5074228;28;20472;-66
2021/11/02 11:21:16;;;;;;;2.00;0.70;;;16.70;36.40;;;;;;5073865;28;20476;-66
2021/11/02 11:23:49;;;;;;;1.63;0.63;;;16.50;37.20;;;;;;5073859;28;20850;-66
2021/11/02 11:26:17;;;;;;;1.77;0.80;;;16.30;38.10;;;;;;5073718;28;20476;-66
2021/11/02 11:28:45;;;;;;;2.33;1.27;;;16.20;39.50;;;;;;5073835;28;20858;-66
2021/11/02 11:31:15;;;;;;;2.13;1.07;;;16.00;39.90;;;;;;5073664;28;20432;-66
2021/11/02 11:33:43;;;;;;;3.40;1.43;;;15.90;40.50;;;;;;5073877;28;20553;-67
2021/11/02 11:36:13;;;;;;;1.60;0.70;;;15.80;40.40;;;;;;5073613;28;20526;-67
2021/11/02 11:38:46;;;;;;;2.33;1.00;;;15.70;41.30;;;;;;5073501;28;20464;-66
2021/11/02 11:41:15;;;;;;;2.60;1.00;;;15.70;41.80;;;;;;5073480;28;20523;-66
2021/11/02 11:43:43;;;;;;;2.57;0.90;;;15.60;42.60;;;;;;5073472;28;20471;-67
2021/11/02 11:46:12;;;;;;;1.50;0.70;;;15.50;42.30;;;;;;5073190;28;20951;-66
2021/11/02 11:48:43;;;;;;;4.13;0.90;;;15.40;43.10;;;;;;5073153;28;20441;-68
2021/11/02 11:51:20;;;;;;;1.87;1.10;;;15.30;43.40;;;;;;5073131;28;20440;-67
2021/11/02 11:53:51;;;;;;;2.03;0.70;;;15.30;44.80;;;;;;5072456;28;20937;-67
2021/11/02 11:56:24;;;;;;;1.80;0.90;;;15.20;44.70;;;;;;5072865;28;20978;-67
2021/11/02 11:58:56;;;;;;;2.20;1.17;;;15.10;44.90;;;;;;5073486;28;20441;-67
2021/11/02 12:01:28;;;;;;;3.40;1.03;;;15.00;45.80;;;;;;5073281;28;20444;-66
2021/11/02 12:03:58;;;;;;;2.00;0.90;;;14.90;46.10;;;;;;5076168;28;21022;-66
2021/11/02 12:06:29;;;;;;;2.37;0.80;;;14.80;46.40;;;;;;5092738;28;20518;-66
2021/11/02 12:09:03;;;;;;;1.70;0.90;;;14.60;46.80;;;;;;5092447;28;20993;-67
2021/11/02 12:11:32;;;;;;;2.50;0.90;;;14.30;47.30;;;;;;5085663;28;20563;-66
2021/11/02 12:14:07;;;;;;;2.93;1.30;;;14.10;48.30;;;;;;5072344;28;20471;-66
2021/11/02 12:16:39;;;;;;;2.23;1.00;;;14.00;48.50;;;;;;5072963;28;20815;-66
2021/11/02 12:19:11;;;;;;;2.83;1.33;;;13.90;48.30;;;;;;5071064;28;20476;-67
2021/11/02 12:21:47;;;;;;;1.73;0.90;;;13.90;49.50;;;;;;5059553;28;20521;-67
2021/11/02 12:24:16;;;;;;;2.57;1.07;;;13.80;50.40;;;;;;5072884;28;20443;-66
2021/11/02 12:26:52;;;;;;;3.17;0.80;;;13.70;49.70;;;;;;5072193;28;20519;-66
2021/11/02 12:29:20;;;;;;;1.77;0.80;;;13.80;49.80;;;;;;5072585;28;20531;-67
2021/11/02 12:31:57;;;;;;;2.40;0.73;;;13.90;50.20;;;;;;5072347;28;20800;-66
2021/11/02 12:34:26;;;;;;;2.40;1.50;;;14.00;50.40;;;;;;5084814;28;20438;-67
2021/11/02 12:36:56;;;;;;;1.73;0.90;;;14.20;50.00;;;;;;5073469;28;20504;-66
2021/11/02 12:39:29;;;;;;;2.67;0.90;;;14.20;49.80;;;;;;5072687;28;20516;-66
2021/11/02 12:41:58;;;;;;;2.57;1.27;;;14.30;50.10;;;;;;5072087;28;20519;-66
2021/11/02 12:44:29;;;;;;;2.57;1.50;;;14.20;50.10;;;;;;5071958;28;20468;-67
2021/11/02 12:46:57;;;;;;;3.23;1.07;;;14.40;50.40;;;;;;5072237;28;20519;-66
2021/11/02 12:49:33;;;;;;;2.20;1.07;;;14.70;49.80;;;;;;5072478;28;20473;-66
2021/11/02 12:52:05;;;;;;;2.40;1.47;;;14.80;49.30;;;;;;5074069;28;20446;-67
2021/11/02 12:54:33;;;;;;;4.17;1.80;;;14.80;49.10;;;;;;5092215;28;20435;-66
2021/11/02 12:57:04;;;;;;;3.80;1.50;;;15.00;50.10;;;;;;5074486;28;20526;-66
2021/11/02 12:59:38;;;;;;;1.80;0.60;;;15.30;49.00;;;;;;5068557;28;20498;-67
2021/11/02 13:02:19;;;;;;;2.10;1.17;;;15.50;48.10;;;;;;5068547;28;20450;-67
2021/11/02 13:04:50;;;;;;;2.43;1.37;;;15.60;47.40;;;;;;5071063;28;20453;-67
2021/11/02 13:07:21;;;;;;;2.40;1.50;;;15.80;48.20;;;;;;5074589;28;20486;-66
2021/11/02 13:09:52;;;;;;;2.83;1.30;;;16.10;47.40;;;;;;5074481;28;20483;-67
2021/11/02 13:12:26;;;;;;;3.93;2.10;;;16.30;47.20;;;;;;5075096;28;20432;-67
2021/11/02 13:15:10;;;;;;;5.23;3.47;;;16.40;46.20;;;;;;5075414;28;21436;-66
2021/11/02 13:17:44;;;;;;;2.83;1.23;;;16.50;47.00;;;;;;5075488;28;20458;-67
2021/11/02 13:20:14;;;;;;;8.17;5.43;;;16.50;46.10;;;;;;5074868;28;20823;-67
2021/11/02 13:22:53;;;;;;;4.50;2.73;;;16.60;45.70;;;;;;5074947;28;20527;-67
2021/11/02 13:25:35;;;;;;;4.90;3.70;;;16.60;46.80;;;;;;5074991;28;20456;-68
2021/11/02 13:28:02;;;;;;;3.60;2.23;;;16.60;45.60;;;;;;5074990;28;20527;-67
2021/11/02 13:30:37;;;;;;;1.93;0.90;;;16.70;45.60;;;;;;5074902;28;20497;-67
2021/11/02 13:33:07;;;;;;;3.33;2.10;;;16.60;44.40;;;;;;5072414;28;20850;-67
2021/11/02 13:35:50;;;;;;;2.43;0.90;;;16.50;44.60;;;;;;5072360;28;20436;-67
2021/11/02 13:38:38;;;;;;;1.50;0.60;;;16.40;44.30;;;;;;5073792;28;20523;-66
2021/11/02 13:41:16;;;;;;;1.60;0.63;;;16.00;43.90;;;;;;5068472;28;20452;-68
2021/11/02 13:43:45;;;;;;;1.70;0.90;;;16.00;45.10;;;;;;5072816;28;21005;-67
2021/11/02 13:46:13;;;;;;;1.90;1.10;;;16.20;45.50;;;;;;5074552;28;20578;-67
2021/11/02 13:48:43;;;;;;;1.70;1.00;;;16.30;44.00;;;;;;5074628;28;20483;-70
2021/11/02 13:51:12;;;;;;;1.60;0.63;;;16.40;44.10;;;;;;5072480;28;20441;-66
2021/11/02 13:53:40;;;;;;;2.23;1.20;;;16.40;43.80;;;;;;5072365;28;20497;-67
2021/11/02 13:56:09;;;;;;;1.50;0.70;;;16.40;43.60;;;;;;5071989;28;20440;-67
2021/11/02 13:58:38;;;;;;;1.60;0.80;;;16.50;44.00;;;;;;5074504;28;20440;-67
2021/11/02 14:01:08;;;;;;;1.40;0.50;;;16.40;43.60;;;;;;5074097;28;21002;-68
2021/11/02 14:03:39;;;;;;;1.50;0.67;;;16.10;43.80;;;;;;5074546;28;20924;-66
2021/11/02 14:06:10;;;;;;;2.30;0.97;;;16.00;44.90;;;;;;5074303;28;20483;-68
2021/11/02 14:08:38;;;;;;;3.47;0.73;;;16.00;44.40;;;;;;5074359;28;20842;-67
2021/11/02 14:11:20;;;;;;;1.77;0.80;;;15.70;42.90;;;;;;5074140;28;20491;-66
2021/11/02 14:13:49;;;;;;;1.70;0.60;;;15.60;42.70;;;;;;5072973;28;20528;-66
2021/11/02 14:16:29;;;;;;;1.77;0.77;;;15.40;42.80;;;;;;5073753;28;20445;-67
2021/11/02 14:19:00;;;;;;;1.80;0.80;;;15.30;43.20;;;;;;5074140;28;20926;-67
2021/11/02 14:21:50;;;;;;;1.53;0.70;;;15.10;42.80;;;;;;5074357;28;20440;-66
2021/11/02 14:24:31;;;;;;;1.73;0.70;;;15.00;42.20;;;;;;5072649;28;20448;-66
2021/11/02 14:27:00;;;;;;;1.77;0.90;;;14.80;42.30;;;;;;5071615;28;20520;-67
2021/11/02 14:30:00;;;;;;;1.60;0.70;;;14.80;43.10;;;;;;5073685;28;20483;-66
2021/11/02 14:32:50;;;;;;;1.70;0.70;;;14.70;43.40;;;;;;5009462;28;20619;-66
2021/11/02 14:35:45;;;;;;;1.80;0.70;;;14.60;43.30;;;;;;5010615;28;20439;-67
2021/11/02 14:38:14;;;;;;;1.90;0.93;;;14.40;43.70;;;;;;5060486;28;20436;-66
2021/11/02 14:40:46;;;;;;;1.90;0.90;;;14.30;43.40;;;;;;5072908;28;20880;-66
2021/11/02 14:43:29;;;;;;;1.60;0.80;;;14.10;43.70;;;;;;5073174;28;20460;-66
2021/11/02 14:45:58;;;;;;;1.60;0.70;;;14.00;44.70;;;;;;5073097;28;20571;-66
2021/11/02 14:48:36;;;;;;;1.60;0.77;;;14.00;44.40;;;;;;5073455;28;20815;-67
2021/11/02 14:51:07;;;;;;;3.40;1.00;;;13.90;44.50;;;;;;5073000;28;20844;-67
2021/11/02 14:53:41;;;;;;;2.10;0.83;;;13.80;44.50;;;;;;5073352;28;20527;-66
2021/11/02 14:56:11;;;;;;;1.80;0.80;;;13.70;45.10;;;;;;5073204;28;20440;-67
2021/11/02 14:58:51;;;;;;;2.97;1.00;;;13.60;45.40;;;;;;5073106;28;20432;-68
2021/11/02 15:01:27;;;;;;;1.70;0.87;;;13.50;45.20;;;;;;5072606;28;20974;-66
2021/11/02 15:03:57;;;;;;;2.10;0.90;;;13.40;45.80;;;;;;5072356;28;21151;-68
2021/11/02 15:06:31;;;;;;;1.90;1.03;;;13.40;46.10;;;;;;5072799;28;20853;-66
2021/11/02 15:09:03;;;;;;;1.93;0.90;;;13.30;46.90;;;;;;5072714;28;20554;-66
2021/11/02 15:11:31;;;;;;;1.60;0.70;;;13.20;47.20;;;;;;5072626;28;20444;-67
2021/11/02 15:14:01;;;;;;;1.80;0.70;;;13.20;47.80;;;;;;5072602;28;20445;-66
2021/11/02 15:16:28;;;;;;;2.50;1.50;;;13.10;48.00;;;;;;5072983;28;20444;-66
2021/11/02 15:19:01;;;;;;;2.20;1.23;;;13.10;48.50;;;;;;5073172;28;20472;-66
2021/11/02 15:21:31;;;;;;;2.23;1.00;;;13.00;49.50;;;;;;5072480;28;20440;-66
2021/11/02 15:24:06;;;;;;;8.95;4.95;;;12.90;49.50;;;;;;5072605;28;20436;-67
2021/11/02 15:26:44;;;;;;;5.18;3.85;;;12.90;49.10;;;;;;5072966;28;20217;-66
2021/11/02 15:29:13;;;;;;;4.90;2.40;;;12.80;49.10;;;;;;5069822;28;20256;-66
2021/11/02 15:31:40;;;;;;;3.90;2.13;;;12.70;50.30;;;;;;5072219;28;20476;-66
2021/11/02 15:34:16;;;;;;;3.10;1.83;;;12.70;50.10;;;;;;5072481;28;20510;-66
2021/11/02 15:36:44;;;;;;;27.83;17.38;;;12.60;50.30;;;;;;5072467;28;20622;-66
2021/11/02 15:39:11;;;;;;;9.57;4.90;;;12.50;49.80;;;;;;5072598;28;20190;-65
2021/11/02 15:41:39;;;;;;;7.68;4.80;;;12.50;50.20;;;;;;5072014;28;20228;-66
2021/11/02 15:44:07;;;;;;;5.47;2.88;;;12.50;50.90;;;;;;5072067;28;20226;-66
2021/11/02 15:46:39;;;;;;;8.65;5.03;;;12.40;51.10;;;;;;5072264;28;20221;-66
2021/11/02 15:49:10;;;;;;;2.30;1.27;;;12.20;50.30;;;;;;5072382;28;20195;-66
2021/11/02 15:51:51;;;;;;;9.60;4.15;;;12.10;50.30;;;;;;5072071;28;20276;-66
2021/11/02 15:54:21;;;;;;;3.28;1.20;;;12.00;50.00;;;;;;5072236;28;20281;-65
2021/11/02 15:56:48;;;;;;;4.68;2.80;;;12.00;50.00;;;;;;5071822;28;20233;-66
2021/11/02 15:59:15;;;;;;;1.85;0.80;;;11.80;48.90;;;;;;5071450;28;20240;-65
2021/11/02 16:01:47;;;;;;;2.30;1.45;;;11.60;49.30;;;;;;5071533;28;20707;-65
2021/11/02 16:04:19;;;;;;;2.20;1.02;;;11.50;49.40;;;;;;5071952;28;20202;-66
2021/11/02 16:06:58;;;;;;;1.83;1.02;;;11.40;49.70;;;;;;5072109;28;20680;-66
2021/11/02 16:09:26;;;;;;;2.35;1.08;;;11.30;50.00;;;;;;5071919;28;20706;-65
2021/11/02 16:11:54;;;;;;;2.03;0.70;;;11.20;50.50;;;;;;5071686;28;20232;-65
2021/11/02 16:14:21;;;;;;;1.52;0.75;;;11.20;50.40;;;;;;5072409;28;20284;-65
2021/11/02 16:16:53;;;;;;;1.85;0.80;;;11.20;50.60;;;;;;5072099;28;20237;-66
2021/11/02 16:19:20;;;;;;;1.50;0.75;;;11.20;50.80;;;;;;5071814;28;20247;-65
2021/11/02 16:21:57;;;;;;;1.75;0.68;;;11.00;51.10;;;;;;5071673;28;20225;-66
2021/11/02 16:24:24;;;;;;;1.60;0.70;;;11.00;51.40;;;;;;5071910;28;20536;-65
2021/11/02 16:26:51;;;;;;;1.50;0.60;;;10.90;51.60;;;;;;5071231;28;20249;-65
2021/11/02 16:29:30;;;;;;;1.70;0.80;;;10.90;52.10;;;;;;5071955;28;20608;-65
2021/11/02 16:32:21;;;;;;;1.75;0.80;;;10.70;52.40;;;;;;5071937;28;20197;-65
2021/11/02 16:34:49;;;;;;;1.90;1.00;;;10.70;52.40;;;;;;5070432;28;20190;-66
2021/11/02 16:37:34;;;;;;;2.13;0.90;;;10.70;52.60;;;;;;5071687;28;20244;-65
2021/11/02 16:40:28;;;;;;;2.10;1.05;;;10.70;52.60;;;;;;5069628;28;20198;-65
2021/11/02 16:42:59;;;;;;;2.28;0.80;;;10.70;52.70;;;;;;5046906;28;20230;-65
2021/11/02 16:45:32;;;;;;;2.28;0.93;;;10.70;52.90;;;;;;5071545;28;20631;-65
2021/11/02 16:48:03;;;;;;;2.22;1.13;;;10.60;52.80;;;;;;5071251;28;20253;-66
2021/11/02 16:50:34;;;;;;;1.83;0.90;;;10.50;53.00;;;;;;5071561;28;20705;-67
2021/11/02 16:53:13;;;;;;;1.80;0.90;;;10.50;53.30;;;;;;5069694;28;20674;-65
2021/11/02 16:55:46;;;;;;;1.92;0.90;;;10.60;53.90;;;;;;5071599;28;20197;-66
2021/11/02 16:58:30;;;;;;;1.70;0.80;;;10.60;53.80;;;;;;5071595;28;20234;-65
2021/11/02 17:01:30;;;;;;;3.05;1.20;;;10.50;53.80;;;;;;5070919;28;20194;-67
2021/11/02 17:04:12;;;;;;;12.13;7.15;;;10.50;54.10;;;;;;5029282;28;20203;-66
2021/11/02 17:06:40;;;;;;;9.10;4.65;;;10.50;54.40;;;;;;5066812;28;20248;-65
2021/11/02 17:09:15;;;;;;;21.80;6.70;;;10.50;54.40;;;;;;5071489;28;20285;-66
2021/11/02 17:12:00;;;;;;;4.55;1.85;;;10.40;54.30;;;;;;5070941;28;20664;-67
2021/11/02 17:14:28;;;;;;;1.70;1.02;;;10.40;54.40;;;;;;5070779;28;20209;-65
2021/11/02 17:16:58;;;;;;;1.50;0.63;;;10.40;54.50;;;;;;5071513;28;20240;-67
2021/11/02 17:19:28;;;;;;;2.40;1.10;;;10.40;54.40;;;;;;5071549;28;20225;-66
2021/11/02 17:21:58;;;;;;;2.00;0.80;;;10.50;54.40;;;;;;5070835;28;20233;-66
2021/11/02 17:24:31;;;;;;;1.70;0.88;;;10.50;53.90;;;;;;5071325;28;20194;-66
2021/11/02 17:26:59;;;;;;;2.42;1.08;;;10.50;54.30;;;;;;5071339;28;20218;-67
2021/11/02 17:29:28;;;;;;;2.03;0.90;;;10.50;54.20;;;;;;5071404;28;20245;-66
2021/11/02 17:32:06;;;;;;;2.33;1.20;;;10.50;53.60;;;;;;5071326;28;20208;-66
2021/11/02 17:34:36;;;;;;;2.15;1.08;;;10.50;53.80;;;;;;5068889;28;20226;-67
2021/11/02 17:37:19;;;;;;;7.38;1.35;;;10.50;53.80;;;;;;5068961;28;20208;-67
2021/11/02 17:39:46;;;;;;;2.38;1.65;;;10.40;53.90;;;;;;5070430;28;20202;-67
2021/11/02 17:42:14;;;;;;;1.90;0.90;;;10.40;53.60;;;;;;5070816;28;20293;-66
2021/11/02 17:44:41;;;;;;;2.38;1.50;;;10.30;53.70;;;;;;5070517;28;20299;-66
2021/11/02 17:47:13;;;;;;;2.97;1.52;;;10.20;53.70;;;;;;5071045;28;20226;-67
2021/11/02 17:49:49;;;;;;;1.92;1.13;;;10.20;53.90;;;;;;5070525;28;20633;-67
2021/11/02 17:52:21;;;;;;;2.00;1.10;;;10.10;54.00;;;;;;5072934;28;20193;-66
2021/11/02 17:54:53;;;;;;;2.03;1.05;;;10.10;54.10;;;;;;5074709;28;20280;-66